createdAt,value
2017-01-20T00:00:03.267Z,3.14
2017-01-20T00:00:29.380Z,3.18
2017-01-20T00:00:55.468Z,3.19
2017-01-20T00:01:21.593Z,3.21
2017-01-20T00:01:47.699Z,3.22
2017-01-20T00:02:13.791Z,3.21
2017-01-20T00:02:39.895Z,3.13
2017-01-20T00:03:05.988Z,3.08
2017-01-20T00:03:32.088Z,3
2017-01-20T00:03:58.196Z,2.97
2017-01-20T00:04:24.277Z,3.07
2017-01-20T00:04:50.383Z,3.05
2017-01-20T00:05:16.488Z,3.03
2017-01-20T00:05:42.577Z,3.03
2017-01-20T00:06:08.668Z,3.08
2017-01-20T00:06:34.780Z,3.05
2017-01-20T00:07:00.874Z,3.04
2017-01-20T00:07:26.965Z,3.04
2017-01-20T00:07:53.072Z,3.08
2017-01-20T00:08:19.166Z,3.04
2017-01-20T00:08:45.256Z,3.13
2017-01-20T00:09:11.366Z,3.05
2017-01-20T00:09:37.468Z,3.1
2017-01-20T00:10:03.552Z,3.05
2017-01-20T00:10:29.655Z,3.07
2017-01-20T00:10:55.769Z,3.08
2017-01-20T00:11:21.881Z,3.08
2017-01-20T00:11:48.073Z,3.04
2017-01-20T00:12:14.188Z,3.04
2017-01-20T00:12:40.283Z,3.07
2017-01-20T00:13:06.381Z,3.08
2017-01-20T00:13:32.474Z,3.08
2017-01-20T00:13:58.627Z,3.14
2017-01-20T00:14:24.825Z,3.07
2017-01-20T00:14:50.936Z,3.04
2017-01-20T00:15:17.032Z,3.07
2017-01-20T00:15:43.137Z,3.07
2017-01-20T00:16:09.230Z,3.07
2017-01-20T00:16:35.326Z,3.08
2017-01-20T00:17:01.436Z,3.05
2017-01-20T00:17:27.529Z,3.04
2017-01-20T00:17:53.620Z,3.11
2017-01-20T00:18:19.743Z,3.1
2017-01-20T00:18:45.845Z,3.05
2017-01-20T00:19:11.953Z,3.07
2017-01-20T00:19:38.038Z,3.11
2017-01-20T00:20:04.137Z,3.04
2017-01-20T00:20:30.244Z,3.07
2017-01-20T00:20:56.340Z,3.14
2017-01-20T00:21:22.487Z,3.16
2017-01-20T00:21:48.592Z,3.08
2017-01-20T00:22:14.691Z,3.11
2017-01-20T00:22:40.776Z,3.1
2017-01-20T00:23:06.887Z,3.16
2017-01-20T00:23:32.987Z,3.23
2017-01-20T00:23:59.080Z,3.18
2017-01-20T00:24:25.187Z,3.16
2017-01-20T00:24:51.279Z,3.18
2017-01-20T00:25:17.390Z,3.16
2017-01-20T00:25:43.490Z,3.14
2017-01-20T00:26:09.574Z,3.18
2017-01-20T00:26:35.683Z,3.13
2017-01-20T00:27:01.781Z,3.14
2017-01-20T00:27:27.874Z,3.16
2017-01-20T00:27:53.976Z,3.14
2017-01-20T00:28:20.437Z,3.11
2017-01-20T00:28:46.520Z,3.19
2017-01-20T00:29:12.626Z,3.19
2017-01-20T00:29:38.729Z,3.14
2017-01-20T00:30:04.820Z,3.16
2017-01-20T00:30:30.927Z,3.19
2017-01-20T00:30:57.011Z,3.22
2017-01-20T00:31:23.120Z,3.14
2017-01-20T00:31:49.224Z,3.21
2017-01-20T00:32:15.316Z,3.14
2017-01-20T00:32:41.416Z,3.14
2017-01-20T00:33:07.522Z,3.04
2017-01-20T00:33:33.611Z,3.11
2017-01-20T00:33:59.707Z,3.11
2017-01-20T00:34:25.818Z,3.11
2017-01-20T00:34:51.907Z,3.08
2017-01-20T00:35:17.998Z,3.08
2017-01-20T00:35:44.103Z,3.13
2017-01-20T00:36:10.204Z,3
2017-01-20T00:36:36.316Z,3.05
2017-01-20T00:37:02.402Z,3.07
2017-01-20T00:37:28.502Z,3.08
2017-01-20T00:37:54.604Z,3.04
2017-01-20T00:38:20.700Z,3.07
2017-01-20T00:38:46.788Z,3.03
2017-01-20T00:39:12.904Z,3.08
2017-01-20T00:39:38.998Z,3.04
2017-01-20T00:40:05.085Z,3
2017-01-20T00:40:31.194Z,3.04
2017-01-20T00:40:57.297Z,3.05
2017-01-20T00:41:23.398Z,3.08
2017-01-20T00:41:49.495Z,3.1
2017-01-20T00:42:15.581Z,3.11
2017-01-20T00:42:41.695Z,3.07
2017-01-20T00:43:07.787Z,3.07
2017-01-20T00:43:33.881Z,2.98
2017-01-20T00:43:59.989Z,2.95
2017-01-20T00:44:26.095Z,3.01
2017-01-20T00:44:52.178Z,3
2017-01-20T00:45:18.282Z,2.98
2017-01-20T00:45:44.389Z,3
2017-01-20T00:46:10.469Z,3.01
2017-01-20T00:46:36.571Z,3.05
2017-01-20T00:47:02.665Z,3.1
2017-01-20T00:47:28.773Z,3.1
2017-01-20T00:47:54.875Z,3.08
2017-01-20T00:48:20.965Z,3.11
2017-01-20T00:48:47.068Z,3.13
2017-01-20T00:49:13.171Z,3.07
2017-01-20T00:49:39.260Z,3.03
2017-01-20T00:50:05.363Z,3.04
2017-01-20T00:50:31.468Z,3.08
2017-01-20T00:50:57.557Z,3.01
2017-01-20T00:51:23.652Z,3.08
2017-01-20T00:51:49.764Z,3.03
2017-01-20T00:52:15.855Z,3.01
2017-01-20T00:52:41.942Z,3
2017-01-20T00:53:08.059Z,3
2017-01-20T00:53:34.150Z,2.97
2017-01-20T00:54:00.244Z,2.98
2017-01-20T00:54:26.352Z,2.95
2017-01-20T00:54:52.449Z,2.93
2017-01-20T00:55:18.545Z,2.93
2017-01-20T00:55:44.645Z,2.95
2017-01-20T00:56:10.753Z,2.8
2017-01-20T00:56:36.844Z,2.92
2017-01-20T00:57:02.949Z,2.86
2017-01-20T00:57:29.052Z,2.93
2017-01-20T00:57:55.142Z,3
2017-01-20T00:58:21.249Z,2.98
2017-01-20T00:58:47.335Z,2.85
2017-01-20T00:59:13.446Z,2.92
2017-01-20T00:59:39.546Z,2.98
2017-01-20T01:00:05.637Z,2.95
2017-01-20T01:00:31.736Z,2.97
2017-01-20T01:00:57.842Z,2.93
2017-01-20T01:01:23.931Z,2.97
2017-01-20T01:01:50.026Z,2.97
2017-01-20T01:02:16.126Z,2.98
2017-01-20T01:02:42.221Z,2.93
2017-01-20T01:03:08.322Z,2.89
2017-01-20T01:03:34.416Z,2.9
2017-01-20T01:04:00.513Z,2.86
2017-01-20T01:04:26.626Z,2.82
2017-01-20T01:04:52.717Z,2.85
2017-01-20T01:05:18.819Z,2.86
2017-01-20T01:05:44.925Z,2.95
2017-01-20T01:06:11.041Z,2.89
2017-01-20T01:06:37.131Z,2.87
2017-01-20T01:07:03.232Z,2.87
2017-01-20T01:07:29.337Z,2.85
2017-01-20T01:07:55.434Z,2.79
2017-01-20T01:08:21.544Z,3.01
2017-01-20T01:08:47.642Z,2.87
2017-01-20T01:09:13.745Z,2.86
2017-01-20T01:09:39.839Z,2.82
2017-01-20T01:10:05.924Z,2.83
2017-01-20T01:10:32.038Z,2.87
2017-01-20T01:10:58.136Z,2.8
2017-01-20T01:11:24.228Z,2.9
2017-01-20T01:11:50.330Z,2.87
2017-01-20T01:12:16.432Z,2.89
2017-01-20T01:12:42.523Z,2.87
2017-01-20T01:13:08.624Z,2.89
2017-01-20T01:13:34.729Z,2.93
2017-01-20T01:14:00.821Z,2.87
2017-01-20T01:14:26.921Z,2.86
2017-01-20T01:14:53.012Z,2.9
2017-01-20T01:15:19.123Z,2.86
2017-01-20T01:15:45.221Z,2.9
2017-01-20T01:16:11.315Z,2.93
2017-01-20T01:16:37.418Z,2.86
2017-01-20T01:17:03.528Z,2.85
2017-01-20T01:17:29.614Z,2.85
2017-01-20T01:17:55.712Z,2.86
2017-01-20T01:18:21.818Z,2.89
2017-01-20T01:18:47.910Z,2.89
2017-01-20T01:19:14.004Z,2.86
2017-01-20T01:19:40.113Z,2.87
2017-01-20T01:20:06.203Z,2.87
2017-01-20T01:20:32.303Z,2.83
2017-01-20T01:20:58.393Z,2.85
2017-01-20T01:21:24.495Z,2.86
2017-01-20T01:21:50.603Z,2.86
2017-01-20T01:22:16.721Z,2.82
2017-01-20T01:22:42.819Z,2.71
2017-01-20T01:23:08.924Z,2.74
2017-01-20T01:23:35.021Z,2.75
2017-01-20T01:24:01.114Z,2.6
2017-01-20T01:24:27.222Z,2.62
2017-01-20T01:24:53.315Z,2.65
2017-01-20T01:25:19.398Z,2.74
2017-01-20T01:25:45.512Z,2.71
2017-01-20T01:26:11.610Z,2.72
2017-01-20T01:26:37.714Z,2.75
2017-01-20T01:27:03.806Z,2.71
2017-01-20T01:27:29.899Z,2.71
2017-01-20T01:27:56.005Z,2.71
2017-01-20T01:28:22.131Z,2.72
2017-01-20T01:28:48.227Z,2.72
2017-01-20T01:29:14.331Z,2.77
2017-01-20T01:29:40.424Z,2.68
2017-01-20T01:30:06.517Z,2.72
2017-01-20T01:30:32.621Z,2.69
2017-01-20T01:30:58.733Z,2.69
2017-01-20T01:31:24.823Z,2.71
2017-01-20T01:31:50.922Z,2.68
2017-01-20T01:32:17.015Z,2.71
2017-01-20T01:32:43.120Z,2.8
2017-01-20T01:33:09.220Z,2.79
2017-01-20T01:33:35.312Z,2.75
2017-01-20T01:34:01.418Z,2.77
2017-01-20T01:34:27.518Z,2.82
2017-01-20T01:34:53.613Z,2.79
2017-01-20T01:35:19.714Z,2.71
2017-01-20T01:35:45.820Z,2.72
2017-01-20T01:36:11.908Z,2.64
2017-01-20T01:36:38.004Z,2.62
2017-01-20T01:37:04.114Z,2.65
2017-01-20T01:37:30.205Z,2.62
2017-01-20T01:37:56.294Z,2.72
2017-01-20T01:38:22.408Z,2.57
2017-01-20T01:38:48.505Z,2.64
2017-01-20T01:39:14.592Z,2.71
2017-01-20T01:39:40.700Z,2.64
2017-01-20T01:40:06.800Z,2.68
2017-01-20T01:40:32.896Z,2.71
2017-01-20T01:40:58.998Z,2.71
2017-01-20T01:41:25.108Z,2.69
2017-01-20T01:41:51.188Z,2.61
2017-01-20T01:42:17.289Z,2.71
2017-01-20T01:42:43.384Z,2.71
2017-01-20T01:43:09.492Z,2.68
2017-01-20T01:43:35.589Z,2.67
2017-01-20T01:44:01.676Z,2.69
2017-01-20T01:44:27.782Z,2.62
2017-01-20T01:44:53.882Z,2.72
2017-01-20T01:45:19.966Z,2.69
2017-01-20T01:45:46.065Z,2.68
2017-01-20T01:46:12.165Z,2.69
2017-01-20T01:46:38.258Z,2.6
2017-01-20T01:47:04.352Z,2.68
2017-01-20T01:47:30.462Z,2.71
2017-01-20T01:47:56.548Z,2.72
2017-01-20T01:48:22.652Z,2.71
2017-01-20T01:48:48.737Z,2.72
2017-01-20T01:49:14.843Z,2.71
2017-01-20T01:49:40.952Z,2.72
2017-01-20T01:50:07.044Z,2.69
2017-01-20T01:50:33.137Z,2.75
2017-01-20T01:50:59.252Z,2.64
2017-01-20T01:51:25.343Z,2.61
2017-01-20T01:51:51.439Z,2.72
2017-01-20T01:52:17.543Z,2.61
2017-01-20T01:52:43.649Z,2.68
2017-01-20T01:53:09.735Z,2.67
2017-01-20T01:53:35.843Z,2.64
2017-01-20T01:54:01.940Z,2.54
2017-01-20T01:54:28.047Z,2.64
2017-01-20T01:54:54.144Z,2.71
2017-01-20T01:55:20.229Z,2.65
2017-01-20T01:55:46.341Z,2.68
2017-01-20T01:56:12.463Z,2.75
2017-01-20T01:56:38.552Z,2.62
2017-01-20T01:57:04.659Z,2.64
2017-01-20T01:57:30.759Z,2.62
2017-01-20T01:57:56.849Z,2.56
2017-01-20T01:58:22.953Z,2.65
2017-01-20T01:58:49.066Z,2.61
2017-01-20T01:59:15.156Z,2.62
2017-01-20T01:59:41.250Z,2.62
2017-01-20T02:00:07.338Z,2.71
2017-01-20T02:00:33.449Z,2.57
2017-01-20T02:00:59.549Z,2.62
2017-01-20T02:01:25.643Z,2.65
2017-01-20T02:01:51.742Z,2.69
2017-01-20T02:02:17.853Z,2.65
2017-01-20T02:02:43.936Z,2.65
2017-01-20T02:03:10.037Z,2.67
2017-01-20T02:03:36.146Z,2.72
2017-01-20T02:04:02.239Z,2.57
2017-01-20T02:04:28.338Z,2.71
2017-01-20T02:04:54.432Z,2.72
2017-01-20T02:05:20.537Z,2.71
2017-01-20T02:05:46.648Z,2.71
2017-01-20T02:06:12.733Z,2.65
2017-01-20T02:06:38.832Z,2.71
2017-01-20T02:07:04.935Z,2.65
2017-01-20T02:07:31.028Z,2.69
2017-01-20T02:07:57.121Z,2.62
2017-01-20T02:08:23.235Z,2.72
2017-01-20T02:08:49.325Z,2.65
2017-01-20T02:09:15.412Z,2.62
2017-01-20T02:09:41.523Z,2.64
2017-01-20T02:10:07.616Z,2.64
2017-01-20T02:10:33.719Z,2.57
2017-01-20T02:10:59.806Z,2.75
2017-01-20T02:11:25.902Z,2.62
2017-01-20T02:11:52.009Z,2.68
2017-01-20T02:12:18.103Z,2.71
2017-01-20T02:12:44.198Z,2.71
2017-01-20T02:13:10.305Z,2.62
2017-01-20T02:13:36.403Z,2.56
2017-01-20T02:14:02.493Z,2.68
2017-01-20T02:14:28.599Z,2.69
2017-01-20T02:14:54.700Z,2.68
2017-01-20T02:15:20.783Z,2.65
2017-01-20T02:15:46.886Z,2.54
2017-01-20T02:16:12.972Z,2.6
2017-01-20T02:16:39.084Z,2.54
2017-01-20T02:17:05.186Z,2.61
2017-01-20T02:17:31.272Z,2.54
2017-01-20T02:17:57.382Z,2.5
2017-01-20T02:18:23.471Z,2.46
2017-01-20T02:18:49.566Z,2.56
2017-01-20T02:19:15.668Z,2.46
2017-01-20T02:19:41.779Z,2.47
2017-01-20T02:20:07.859Z,2.46
2017-01-20T02:20:33.960Z,2.44
2017-01-20T02:21:00.067Z,2.43
2017-01-20T02:21:26.159Z,2.44
2017-01-20T02:21:52.254Z,2.43
2017-01-20T02:22:18.367Z,2.46
2017-01-20T02:22:44.455Z,2.42
2017-01-20T02:23:10.551Z,2.44
2017-01-20T02:23:36.657Z,2.36
2017-01-20T02:24:02.758Z,2.38
2017-01-20T02:24:28.845Z,2.36
2017-01-20T02:24:54.953Z,2.35
2017-01-20T02:25:21.049Z,2.38
2017-01-20T02:25:47.139Z,2.36
2017-01-20T02:26:13.262Z,2.38
2017-01-20T02:26:39.370Z,2.47
2017-01-20T02:27:05.493Z,2.38
2017-01-20T02:27:31.591Z,2.46
2017-01-20T02:27:57.679Z,2.43
2017-01-20T02:28:23.789Z,2.42
2017-01-20T02:28:49.886Z,2.39
2017-01-20T02:29:15.980Z,2.38
2017-01-20T02:29:42.081Z,2.36
2017-01-20T02:30:08.190Z,2.43
2017-01-20T02:30:34.306Z,2.42
2017-01-20T02:31:00.405Z,2.42
2017-01-20T02:31:26.508Z,2.47
2017-01-20T02:31:52.601Z,2.38
2017-01-20T02:32:18.696Z,2.33
2017-01-20T02:32:44.794Z,2.39
2017-01-20T02:33:10.901Z,2.36
2017-01-20T02:33:37.013Z,2.32
2017-01-20T02:34:03.098Z,2.43
2017-01-20T02:34:29.201Z,2.33
2017-01-20T02:34:55.301Z,2.32
2017-01-20T02:35:21.393Z,2.31
2017-01-20T02:35:47.491Z,2.31
2017-01-20T02:36:13.593Z,2.33
2017-01-20T02:36:39.690Z,2.46
2017-01-20T02:37:05.785Z,2.39
2017-01-20T02:37:31.894Z,2.49
2017-01-20T02:37:57.990Z,2.39
2017-01-20T02:38:24.096Z,2.47
2017-01-20T02:38:50.181Z,2.42
2017-01-20T02:39:16.271Z,2.53
2017-01-20T02:39:42.384Z,2.47
2017-01-20T02:40:08.476Z,2.43
2017-01-20T02:40:34.572Z,2.46
2017-01-20T02:41:00.677Z,2.38
2017-01-20T02:41:26.773Z,2.35
2017-01-20T02:41:52.878Z,2.51
2017-01-20T02:42:18.988Z,2.47
2017-01-20T02:42:45.090Z,2.49
2017-01-20T02:43:11.191Z,2.42
2017-01-20T02:43:37.288Z,2.43
2017-01-20T02:44:03.380Z,2.53
2017-01-20T02:44:29.488Z,2.42
2017-01-20T02:44:55.596Z,2.49
2017-01-20T02:45:21.679Z,2.47
2017-01-20T02:45:47.783Z,2.47
2017-01-20T02:46:13.880Z,2.54
2017-01-20T02:46:39.971Z,2.54
2017-01-20T02:47:06.068Z,2.61
2017-01-20T02:47:32.173Z,2.57
2017-01-20T02:47:58.266Z,2.56
2017-01-20T02:48:24.366Z,2.6
2017-01-20T02:48:50.477Z,2.61
2017-01-20T02:49:16.562Z,2.54
2017-01-20T02:49:42.667Z,2.53
2017-01-20T02:50:08.756Z,2.54
2017-01-20T02:50:34.857Z,2.53
2017-01-20T02:51:00.963Z,2.62
2017-01-20T02:51:27.085Z,2.57
2017-01-20T02:51:53.181Z,2.6
2017-01-20T02:52:19.584Z,2.53
2017-01-20T02:52:46.046Z,2.62
2017-01-20T02:53:12.143Z,2.57
2017-01-20T02:53:38.251Z,2.51
2017-01-20T02:54:04.342Z,2.65
2017-01-20T02:54:30.426Z,2.67
2017-01-20T02:54:56.534Z,2.64
2017-01-20T02:55:22.636Z,2.64
2017-01-20T02:55:48.737Z,2.69
2017-01-20T02:56:14.829Z,2.68
2017-01-20T02:56:40.923Z,2.67
2017-01-20T02:57:07.029Z,2.68
2017-01-20T02:57:33.118Z,2.62
2017-01-20T02:57:59.215Z,2.71
2017-01-20T02:58:25.318Z,2.64
2017-01-20T02:58:51.412Z,2.67
2017-01-20T02:59:17.505Z,2.67
2017-01-20T02:59:43.614Z,2.68
2017-01-20T03:00:09.713Z,2.69
2017-01-20T03:00:35.811Z,2.68
2017-01-20T03:01:01.901Z,2.64
2017-01-20T03:01:27.991Z,2.64
2017-01-20T03:01:54.095Z,2.71
2017-01-20T03:02:20.190Z,2.61
2017-01-20T03:02:46.277Z,2.65
2017-01-20T03:03:12.378Z,2.65
2017-01-20T03:03:38.473Z,2.69
2017-01-20T03:04:04.568Z,2.65
2017-01-20T03:04:30.673Z,2.65
2017-01-20T03:04:56.780Z,2.69
2017-01-20T03:05:22.864Z,2.57
2017-01-20T03:05:48.959Z,2.43
2017-01-20T03:06:15.069Z,2.38
2017-01-20T03:06:41.158Z,2.46
2017-01-20T03:07:07.254Z,2.31
2017-01-20T03:07:33.360Z,2.29
2017-01-20T03:07:59.449Z,2.15
2017-01-20T03:08:25.536Z,2.25
2017-01-20T03:08:51.642Z,2.17
2017-01-20T03:09:17.741Z,2.29
2017-01-20T03:09:43.837Z,2.28
2017-01-20T03:10:09.938Z,2.35
2017-01-20T03:10:36.040Z,2.28
2017-01-20T03:11:02.124Z,2.35
2017-01-20T03:11:28.232Z,2.29
2017-01-20T03:11:54.322Z,2.28
2017-01-20T03:12:20.428Z,2.33
2017-01-20T03:12:46.520Z,2.36
2017-01-20T03:13:12.611Z,2.39
2017-01-20T03:13:38.718Z,2.36
2017-01-20T03:14:04.819Z,2.25
2017-01-20T03:14:30.909Z,2.24
2017-01-20T03:14:57.011Z,2.18
2017-01-20T03:15:23.113Z,2.15
2017-01-20T03:15:49.200Z,2.11
2017-01-20T03:16:15.304Z,2.1
2017-01-20T03:16:41.412Z,2.11
2017-01-20T03:17:07.500Z,2.2
2017-01-20T03:17:33.602Z,2.25
2017-01-20T03:17:59.693Z,2.31
2017-01-20T03:18:25.793Z,2.26
2017-01-20T03:18:51.902Z,2.24
2017-01-20T03:19:17.983Z,2.29
2017-01-20T03:19:44.082Z,2.31
2017-01-20T03:20:10.188Z,2.29
2017-01-20T03:20:36.278Z,2.18
2017-01-20T03:21:02.376Z,2.29
2017-01-20T03:21:28.481Z,2.31
2017-01-20T03:21:54.576Z,2.33
2017-01-20T03:22:20.662Z,2.32
2017-01-20T03:22:46.765Z,2.31
2017-01-20T03:23:12.864Z,2.26
2017-01-20T03:23:38.969Z,2.28
2017-01-20T03:24:05.061Z,2.18
2017-01-20T03:24:31.154Z,2.24
2017-01-20T03:24:57.263Z,2.22
2017-01-20T03:25:23.360Z,2.17
2017-01-20T03:25:49.456Z,2.2
2017-01-20T03:26:15.562Z,2.24
2017-01-20T03:26:41.653Z,2.26
2017-01-20T03:27:07.743Z,2.18
2017-01-20T03:27:33.852Z,2.29
2017-01-20T03:27:59.956Z,2.32
2017-01-20T03:28:26.046Z,2.31
2017-01-20T03:28:52.141Z,2.31
2017-01-20T03:29:18.237Z,2.35
2017-01-20T03:29:44.343Z,2.32
2017-01-20T03:30:10.437Z,2.35
2017-01-20T03:30:36.525Z,2.38
2017-01-20T03:31:02.634Z,2.33
2017-01-20T03:31:28.731Z,2.33
2017-01-20T03:31:54.824Z,2.26
2017-01-20T03:32:20.933Z,2.39
2017-01-20T03:32:47.039Z,2.32
2017-01-20T03:33:13.121Z,2.38
2017-01-20T03:33:39.222Z,2.32
2017-01-20T03:34:05.320Z,2.33
2017-01-20T03:34:31.422Z,2.43
2017-01-20T03:34:57.520Z,2.38
2017-01-20T03:35:23.636Z,2.47
2017-01-20T03:35:49.743Z,2.44
2017-01-20T03:36:15.851Z,2.46
2017-01-20T03:36:41.935Z,2.49
2017-01-20T03:37:08.031Z,2.36
2017-01-20T03:37:34.134Z,2.43
2017-01-20T03:38:00.226Z,2.47
2017-01-20T03:38:26.324Z,2.53
2017-01-20T03:38:52.432Z,2.53
2017-01-20T03:39:18.535Z,2.51
2017-01-20T03:39:44.623Z,2.47
2017-01-20T03:40:10.736Z,2.54
2017-01-20T03:40:36.832Z,2.54
2017-01-20T03:41:02.920Z,2.53
2017-01-20T03:41:29.025Z,2.62
2017-01-20T03:41:55.126Z,2.53
2017-01-20T03:42:21.213Z,2.6
2017-01-20T03:42:47.322Z,2.54
2017-01-20T03:43:13.430Z,2.53
2017-01-20T03:43:39.515Z,2.6
2017-01-20T03:44:05.613Z,2.51
2017-01-20T03:44:31.715Z,2.5
2017-01-20T03:44:57.807Z,2.54
2017-01-20T03:45:23.912Z,2.65
2017-01-20T03:45:50.000Z,2.68
2017-01-20T03:46:16.097Z,2.69
2017-01-20T03:46:42.203Z,2.57
2017-01-20T03:47:08.294Z,2.68
2017-01-20T03:47:34.396Z,2.64
2017-01-20T03:48:00.507Z,2.68
2017-01-20T03:48:26.597Z,2.62
2017-01-20T03:48:52.691Z,2.69
2017-01-20T03:49:18.797Z,2.77
2017-01-20T03:49:44.891Z,2.74
2017-01-20T03:50:10.984Z,2.85
2017-01-20T03:50:37.093Z,2.71
2017-01-20T03:51:03.192Z,2.79
2017-01-20T03:51:29.280Z,2.72
2017-01-20T03:51:55.388Z,2.83
2017-01-20T03:52:21.487Z,2.77
2017-01-20T03:52:47.574Z,2.86
2017-01-20T03:53:13.674Z,2.72
2017-01-20T03:53:39.783Z,2.9
2017-01-20T03:54:05.864Z,2.9
2017-01-20T03:54:31.963Z,2.87
2017-01-20T03:54:58.069Z,2.83
2017-01-20T03:55:24.160Z,2.85
2017-01-20T03:55:50.256Z,2.9
2017-01-20T03:56:16.352Z,2.86
2017-01-20T03:56:42.451Z,2.9
2017-01-20T03:57:08.556Z,2.86
2017-01-20T03:57:34.640Z,2.85
2017-01-20T03:58:00.746Z,2.82
2017-01-20T03:58:26.850Z,2.77
2017-01-20T03:58:52.943Z,2.86
2017-01-20T03:59:19.034Z,2.85
2017-01-20T03:59:45.143Z,2.86
2017-01-20T04:00:11.260Z,2.74
2017-01-20T04:00:37.350Z,2.72
2017-01-20T04:01:03.459Z,2.69
2017-01-20T04:01:29.551Z,2.57
2017-01-20T04:01:55.660Z,2.61
2017-01-20T04:02:21.749Z,2.69
2017-01-20T04:02:47.841Z,2.71
2017-01-20T04:03:13.944Z,2.72
2017-01-20T04:03:40.044Z,2.72
2017-01-20T04:04:06.136Z,2.72
2017-01-20T04:04:32.246Z,2.65
2017-01-20T04:04:58.340Z,2.71
2017-01-20T04:05:24.426Z,2.68
2017-01-20T04:05:50.537Z,2.67
2017-01-20T04:06:16.637Z,2.72
2017-01-20T04:06:42.732Z,2.68
2017-01-20T04:07:08.830Z,2.65
2017-01-20T04:07:34.918Z,2.61
2017-01-20T04:08:01.031Z,2.72
2017-01-20T04:08:27.131Z,2.71
2017-01-20T04:08:53.221Z,2.75
2017-01-20T04:09:19.324Z,2.74
2017-01-20T04:09:45.422Z,2.83
2017-01-20T04:10:11.512Z,2.83
2017-01-20T04:10:37.618Z,2.83
2017-01-20T04:11:03.732Z,2.79
2017-01-20T04:11:29.818Z,2.87
2017-01-20T04:11:55.917Z,2.89
2017-01-20T04:12:22.022Z,2.87
2017-01-20T04:12:48.115Z,2.89
2017-01-20T04:13:14.216Z,2.89
2017-01-20T04:13:40.308Z,2.87
2017-01-20T04:14:06.415Z,2.89
2017-01-20T04:14:32.524Z,2.93
2017-01-20T04:14:58.605Z,2.87
2017-01-20T04:15:24.704Z,2.89
2017-01-20T04:15:50.811Z,2.93
2017-01-20T04:16:16.906Z,2.93
2017-01-20T04:16:43.001Z,2.9
2017-01-20T04:17:09.108Z,2.86
2017-01-20T04:17:35.198Z,2.87
2017-01-20T04:18:01.288Z,2.86
2017-01-20T04:18:27.389Z,2.89
2017-01-20T04:18:53.496Z,2.92
2017-01-20T04:19:19.596Z,2.92
2017-01-20T04:19:45.687Z,2.87
2017-01-20T04:20:11.783Z,2.87
2017-01-20T04:20:37.892Z,2.82
2017-01-20T04:21:03.985Z,2.9
2017-01-20T04:21:30.077Z,2.87
2017-01-20T04:21:56.184Z,2.93
2017-01-20T04:22:22.274Z,2.95
2017-01-20T04:22:48.364Z,2.9
2017-01-20T04:23:14.469Z,2.89
2017-01-20T04:23:40.569Z,2.85
2017-01-20T04:24:06.661Z,2.85
2017-01-20T04:24:32.763Z,2.86
2017-01-20T04:24:58.853Z,2.86
2017-01-20T04:25:24.961Z,2.86
2017-01-20T04:25:51.056Z,2.86
2017-01-20T04:26:17.137Z,2.89
2017-01-20T04:26:43.247Z,2.95
2017-01-20T04:27:09.345Z,2.89
2017-01-20T04:27:35.438Z,2.83
2017-01-20T04:28:01.539Z,2.86
2017-01-20T04:28:27.647Z,2.87
2017-01-20T04:28:53.733Z,2.82
2017-01-20T04:29:19.841Z,2.93
2017-01-20T04:29:45.935Z,2.85
2017-01-20T04:30:12.040Z,2.97
2017-01-20T04:30:38.136Z,2.83
2017-01-20T04:31:04.224Z,2.97
2017-01-20T04:31:30.329Z,2.85
2017-01-20T04:31:56.439Z,2.97
2017-01-20T04:32:22.525Z,2.93
2017-01-20T04:32:48.623Z,2.82
2017-01-20T04:33:14.726Z,2.85
2017-01-20T04:33:40.820Z,2.85
2017-01-20T04:34:06.913Z,2.89
2017-01-20T04:34:33.020Z,2.97
2017-01-20T04:34:59.116Z,2.97
2017-01-20T04:35:25.208Z,3
2017-01-20T04:35:51.314Z,2.87
2017-01-20T04:36:17.411Z,2.95
2017-01-20T04:36:43.504Z,2.95
2017-01-20T04:37:09.613Z,2.95
2017-01-20T04:37:35.717Z,2.97
2017-01-20T04:38:01.803Z,2.97
2017-01-20T04:38:27.907Z,2.98
2017-01-20T04:38:54.014Z,3.05
2017-01-20T04:39:20.101Z,2.97
2017-01-20T04:39:46.201Z,2.93
2017-01-20T04:40:12.310Z,2.95
2017-01-20T04:40:38.398Z,2.97
2017-01-20T04:41:04.494Z,3.01
2017-01-20T04:41:30.588Z,3.03
2017-01-20T04:41:56.691Z,3.04
2017-01-20T04:42:22.799Z,3.08
2017-01-20T04:42:48.885Z,3.05
2017-01-20T04:43:14.980Z,3.05
2017-01-20T04:43:41.089Z,3.14
2017-01-20T04:44:07.186Z,3.19
2017-01-20T04:44:33.287Z,3.07
2017-01-20T04:44:59.396Z,3.08
2017-01-20T04:45:25.495Z,3.14
2017-01-20T04:45:51.583Z,3.16
2017-01-20T04:46:17.688Z,3.13
2017-01-20T04:46:43.788Z,3.19
2017-01-20T04:47:09.890Z,3.14
2017-01-20T04:47:35.987Z,3.16
2017-01-20T04:48:02.084Z,3.16
2017-01-20T04:48:28.194Z,3.18
2017-01-20T04:48:54.282Z,3.16
2017-01-20T04:49:20.376Z,3.19
2017-01-20T04:49:46.489Z,3.18
2017-01-20T04:50:12.590Z,3.18
2017-01-20T04:50:38.676Z,3.14
2017-01-20T04:51:04.779Z,3.19
2017-01-20T04:51:30.883Z,3.18
2017-01-20T04:51:56.978Z,3.07
2017-01-20T04:52:23.071Z,3.07
2017-01-20T04:52:49.167Z,2.97
2017-01-20T04:53:15.278Z,2.83
2017-01-20T04:53:41.368Z,2.97
2017-01-20T04:54:07.455Z,2.87
2017-01-20T04:54:33.563Z,2.9
2017-01-20T04:54:59.657Z,2.85
2017-01-20T04:55:25.743Z,2.9
2017-01-20T04:55:51.852Z,2.93
2017-01-20T04:56:17.964Z,3.01
2017-01-20T04:56:44.045Z,3.07
2017-01-20T04:57:10.147Z,2.98
2017-01-20T04:57:36.253Z,2.86
2017-01-20T04:58:02.345Z,2.97
2017-01-20T04:58:28.445Z,2.86
2017-01-20T04:58:54.556Z,2.85
2017-01-20T04:59:20.648Z,2.83
2017-01-20T04:59:46.734Z,2.98
2017-01-20T05:00:12.846Z,2.97
2017-01-20T05:00:38.945Z,3.04
2017-01-20T05:01:05.038Z,2.97
2017-01-20T05:01:31.144Z,2.92
2017-01-20T05:01:57.243Z,2.87
2017-01-20T05:02:23.334Z,2.93
2017-01-20T05:02:49.434Z,3
2017-01-20T05:03:15.528Z,3.01
2017-01-20T05:03:41.636Z,3.01
2017-01-20T05:04:07.731Z,3.03
2017-01-20T05:04:33.818Z,2.93
2017-01-20T05:04:59.933Z,2.85
2017-01-20T05:05:26.032Z,2.8
2017-01-20T05:05:52.123Z,2.85
2017-01-20T05:06:18.222Z,2.86
2017-01-20T05:06:44.328Z,2.86
2017-01-20T05:07:10.418Z,2.87
2017-01-20T05:07:36.522Z,2.85
2017-01-20T05:08:02.629Z,2.87
2017-01-20T05:08:28.718Z,2.89
2017-01-20T05:08:54.818Z,2.87
2017-01-20T05:09:20.913Z,2.86
2017-01-20T05:09:47.022Z,2.87
2017-01-20T05:10:13.129Z,2.89
2017-01-20T05:10:39.213Z,2.77
2017-01-20T05:11:05.309Z,2.83
2017-01-20T05:11:31.417Z,2.83
2017-01-20T05:11:57.506Z,2.85
2017-01-20T05:12:23.604Z,2.85
2017-01-20T05:12:49.706Z,2.89
2017-01-20T05:13:15.800Z,2.86
2017-01-20T05:13:41.888Z,2.85
2017-01-20T05:14:07.993Z,2.82
2017-01-20T05:14:34.093Z,2.85
2017-01-20T05:15:00.195Z,2.9
2017-01-20T05:15:26.287Z,2.86
2017-01-20T05:15:52.383Z,2.8
2017-01-20T05:16:18.490Z,2.79
2017-01-20T05:16:44.584Z,2.75
2017-01-20T05:17:10.675Z,2.82
2017-01-20T05:17:36.783Z,2.82
2017-01-20T05:18:02.882Z,2.79
2017-01-20T05:18:28.979Z,2.74
2017-01-20T05:18:55.086Z,2.74
2017-01-20T05:19:21.186Z,2.69
2017-01-20T05:19:47.281Z,2.68
2017-01-20T05:20:13.383Z,2.64
2017-01-20T05:20:39.486Z,2.64
2017-01-20T05:21:05.575Z,2.64
2017-01-20T05:21:31.676Z,2.65
2017-01-20T05:21:57.785Z,2.56
2017-01-20T05:22:23.872Z,2.5
2017-01-20T05:22:49.967Z,2.56
2017-01-20T05:23:16.078Z,2.51
2017-01-20T05:23:42.172Z,2.53
2017-01-20T05:24:08.264Z,2.56
2017-01-20T05:24:34.379Z,2.56
2017-01-20T05:25:00.469Z,2.54
2017-01-20T05:25:26.566Z,2.62
2017-01-20T05:25:52.660Z,2.65
2017-01-20T05:26:18.759Z,2.54
2017-01-20T05:26:44.867Z,2.53
2017-01-20T05:27:10.957Z,2.54
2017-01-20T05:27:37.046Z,2.47
2017-01-20T05:28:03.161Z,2.49
2017-01-20T05:28:29.260Z,2.46
2017-01-20T05:28:55.348Z,2.39
2017-01-20T05:29:21.457Z,2.33
2017-01-20T05:29:47.556Z,2.36
2017-01-20T05:30:13.641Z,2.39
2017-01-20T05:30:39.747Z,2.39
2017-01-20T05:31:05.840Z,2.42
2017-01-20T05:31:31.953Z,2.33
2017-01-20T05:31:58.044Z,2.36
2017-01-20T05:32:24.133Z,2.46
2017-01-20T05:32:50.244Z,2.31
2017-01-20T05:33:16.352Z,2.31
2017-01-20T05:33:42.437Z,2.31
2017-01-20T05:34:08.544Z,2.29
2017-01-20T05:34:34.646Z,2.26
2017-01-20T05:35:00.734Z,2.31
2017-01-20T05:35:26.836Z,2.38
2017-01-20T05:35:52.950Z,2.33
2017-01-20T05:36:19.034Z,2.39
2017-01-20T05:36:45.134Z,2.39
2017-01-20T05:37:11.227Z,2.36
2017-01-20T05:37:37.332Z,2.36
2017-01-20T05:38:03.439Z,2.39
2017-01-20T05:38:29.522Z,2.33
2017-01-20T05:38:55.622Z,2.32
2017-01-20T05:39:21.736Z,2.38
2017-01-20T05:39:47.822Z,2.32
2017-01-20T05:40:13.918Z,2.38
2017-01-20T05:40:40.025Z,2.42
2017-01-20T05:41:06.115Z,2.32
2017-01-20T05:41:32.202Z,2.43
2017-01-20T05:41:58.303Z,2.35
2017-01-20T05:42:24.401Z,2.39
2017-01-20T05:42:50.507Z,2.49
2017-01-20T05:43:16.595Z,2.39
2017-01-20T05:43:42.694Z,2.53
2017-01-20T05:44:08.796Z,2.46
2017-01-20T05:44:34.892Z,2.5
2017-01-20T05:45:00.982Z,2.49
2017-01-20T05:45:27.099Z,2.49
2017-01-20T05:45:53.194Z,2.43
2017-01-20T05:46:19.286Z,2.43
2017-01-20T05:46:45.393Z,2.47
2017-01-20T05:47:11.489Z,2.51
2017-01-20T05:47:37.590Z,2.53
2017-01-20T05:48:03.679Z,2.53